sensor_id;sensor_type;location;lat;lon;timestamp;pressure;altitude;pressure_sealevel;temperature;humidity
55990;BME280;41875;55.806;38.082;2023-04-15T00:01:13;100502.41;;;2.65;24.82
55990;BME280;41875;55.806;38.082;2023-04-15T00:03:47;100504.19;;;2.64;25.01
55990;BME280;41875;55.806;38.082;2023-04-15T00:06:16;100512.66;;;2.36;25.08
55990;BME280;41875;55.806;38.082;2023-04-15T00:08:45;100512.56;;;2.37;25.15
55990;BME280;41875;55.806;38.082;2023-04-15T00:11:13;100519.25;;;2.43;24.81
55990;BME280;41875;55.806;38.082;2023-04-15T00:13:42;100517.25;;;2.48;25.03
55990;BME280;41875;55.806;38.082;2023-04-15T00:16:11;100515.16;;;2.71;24.75
55990;BME280;41875;55.806;38.082;2023-04-15T00:18:40;100523.03;;;2.37;25.25
55990;BME280;41875;55.806;38.082;2023-04-15T00:21:09;100528.09;;;2.40;24.82
55990;BME280;41875;55.806;38.082;2023-04-15T00:23:38;100522.88;;;2.07;25.77
55990;BME280;41875;55.806;38.082;2023-04-15T00:26:07;100536.28;;;2.34;25.17
55990;BME280;41875;55.806;38.082;2023-04-15T00:28:36;100528.16;;;2.05;25.63
55990;BME280;41875;55.806;38.082;2023-04-15T00:31:04;100530.88;;;2.04;25.48
55990;BME280;41875;55.806;38.082;2023-04-15T00:33:33;100528.16;;;2.05;25.53
55990;BME280;41875;55.806;38.082;2023-04-15T00:36:05;100534.63;;;2.16;25.42
55990;BME280;41875;55.806;38.082;2023-04-15T00:38:37;100539.22;;;2.28;25.59
55990;BME280;41875;55.806;38.082;2023-04-15T00:41:05;100534.88;;;2.11;25.35
55990;BME280;41875;55.806;38.082;2023-04-15T00:43:34;100551.19;;;1.81;26.15
55990;BME280;41875;55.806;38.082;2023-04-15T00:46:03;100543.69;;;2.08;25.45
55990;BME280;41875;55.806;38.082;2023-04-15T00:48:33;100548.50;;;2.34;25.35
55990;BME280;41875;55.806;38.082;2023-04-15T00:51:02;100559.25;;;1.94;25.96
55990;BME280;41875;55.806;38.082;2023-04-15T00:53:31;100553.31;;;2.08;25.72
55990;BME280;41875;55.806;38.082;2023-04-15T00:56:01;100567.88;;;2.29;25.25
55990;BME280;41875;55.806;38.082;2023-04-15T00:58:30;100566.91;;;2.32;24.94
55990;BME280;41875;55.806;38.082;2023-04-15T01:00:58;100565.28;;;2.12;25.66
55990;BME280;41875;55.806;38.082;2023-04-15T01:03:28;100569.44;;;2.16;25.29
55990;BME280;41875;55.806;38.082;2023-04-15T01:05:59;100579.22;;;1.77;25.55
55990;BME280;41875;55.806;38.082;2023-04-15T01:08:30;100581.31;;;2.06;25.49
55990;BME280;41875;55.806;38.082;2023-04-15T01:10:58;100568.88;;;2.44;24.57
55990;BME280;41875;55.806;38.082;2023-04-15T01:13:33;100576.06;;;2.23;25.21
55990;BME280;41875;55.806;38.082;2023-04-15T01:16:01;100568.88;;;1.93;26.06
55990;BME280;41875;55.806;38.082;2023-04-15T01:18:30;100577.22;;;2.18;25.17
55990;BME280;41875;55.806;38.082;2023-04-15T01:20:59;100595.00;;;1.93;26.23
55990;BME280;41875;55.806;38.082;2023-04-15T01:23:30;100588.75;;;1.78;26.17
55990;BME280;41875;55.806;38.082;2023-04-15T01:26:01;100590.19;;;1.49;26.66
55990;BME280;41875;55.806;38.082;2023-04-15T01:28:30;100589.53;;;1.80;26.07
55990;BME280;41875;55.806;38.082;2023-04-15T01:31:06;100591.75;;;1.88;25.56
55990;BME280;41875;55.806;38.082;2023-04-15T01:33:38;100588.53;;;1.65;26.58
55990;BME280;41875;55.806;38.082;2023-04-15T01:36:25;100598.34;;;1.60;26.39
55990;BME280;41875;55.806;38.082;2023-04-15T01:38:54;100609.94;;;1.55;26.26
55990;BME280;41875;55.806;38.082;2023-04-15T01:41:26;100599.91;;;1.64;26.29
55990;BME280;41875;55.806;38.082;2023-04-15T01:43:55;100609.25;;;1.51;26.90
55990;BME280;41875;55.806;38.082;2023-04-15T01:46:25;100613.28;;;1.76;26.50
55990;BME280;41875;55.806;38.082;2023-04-15T01:48:55;100615.53;;;1.47;26.74
55990;BME280;41875;55.806;38.082;2023-04-15T01:51:26;100612.19;;;1.62;26.27
55990;BME280;41875;55.806;38.082;2023-04-15T01:53:55;100616.84;;;1.56;27.00
55990;BME280;41875;55.806;38.082;2023-04-15T01:56:26;100620.56;;;1.32;26.86
55990;BME280;41875;55.806;38.082;2023-04-15T01:58:57;100616.25;;;1.68;26.79
55990;BME280;41875;55.806;38.082;2023-04-15T02:01:27;100626.25;;;1.41;27.17
55990;BME280;41875;55.806;38.082;2023-04-15T02:03:59;100625.34;;;1.42;27.25
55990;BME280;41875;55.806;38.082;2023-04-15T02:06:31;100627.38;;;1.72;26.73
55990;BME280;41875;55.806;38.082;2023-04-15T02:09:01;100621.88;;;1.78;26.34
55990;BME280;41875;55.806;38.082;2023-04-15T02:11:33;100636.09;;;1.35;27.13
55990;BME280;41875;55.806;38.082;2023-04-15T02:14:04;100639.44;;;1.74;26.68
55990;BME280;41875;55.806;38.082;2023-04-15T02:16:34;100640.41;;;1.73;26.71
55990;BME280;41875;55.806;38.082;2023-04-15T02:19:04;100635.31;;;1.70;26.64
55990;BME280;41875;55.806;38.082;2023-04-15T02:21:33;100630.69;;;1.75;25.92
55990;BME280;41875;55.806;38.082;2023-04-15T02:24:04;100631.56;;;1.76;26.64
55990;BME280;41875;55.806;38.082;2023-04-15T02:26:35;100638.66;;;2.09;25.92
55990;BME280;41875;55.806;38.082;2023-04-15T02:29:30;100643.34;;;3.04;24.79
55990;BME280;41875;55.806;38.082;2023-04-15T02:32:01;100635.91;;;3.61;24.44
55990;BME280;41875;55.806;38.082;2023-04-15T02:34:31;100644.88;;;2.75;25.25
55990;BME280;41875;55.806;38.082;2023-04-15T02:37:00;100647.16;;;3.63;24.33
55990;BME280;41875;55.806;38.082;2023-04-15T02:39:31;100656.28;;;4.02;23.61
55990;BME280;41875;55.806;38.082;2023-04-15T02:42:02;100652.56;;;4.51;23.23
55990;BME280;41875;55.806;38.082;2023-04-15T02:44:33;100653.19;;;4.40;23.12
55990;BME280;41875;55.806;38.082;2023-04-15T02:47:04;100654.13;;;4.39;22.93
55990;BME280;41875;55.806;38.082;2023-04-15T02:49:34;100665.94;;;4.32;23.12
55990;BME280;41875;55.806;38.082;2023-04-15T02:52:04;100666.75;;;4.78;22.58
55990;BME280;41875;55.806;38.082;2023-04-15T02:54:35;100678.13;;;4.33;23.13
55990;BME280;41875;55.806;38.082;2023-04-15T02:57:06;100681.72;;;3.38;24.12
55990;BME280;41875;55.806;38.082;2023-04-15T02:59:35;100682.16;;;4.39;23.33
55990;BME280;41875;55.806;38.082;2023-04-15T03:02:06;100683.84;;;4.40;22.99
55990;BME280;41875;55.806;38.082;2023-04-15T03:04:36;100690.22;;;3.89;23.53
55990;BME280;41875;55.806;38.082;2023-04-15T03:07:06;100685.56;;;3.94;23.38
55990;BME280;41875;55.806;38.082;2023-04-15T03:09:36;100697.38;;;4.02;23.44
55990;BME280;41875;55.806;38.082;2023-04-15T03:12:09;100700.31;;;3.65;23.79
55990;BME280;41875;55.806;38.082;2023-04-15T03:14:39;100704.97;;;3.92;23.71
55990;BME280;41875;55.806;38.082;2023-04-15T03:17:08;100704.34;;;3.23;24.20
55990;BME280;41875;55.806;38.082;2023-04-15T03:19:39;100707.25;;;3.50;24.06
55990;BME280;41875;55.806;38.082;2023-04-15T03:22:09;100704.09;;;3.27;24.13
55990;BME280;41875;55.806;38.082;2023-04-15T03:24:39;100709.22;;;2.62;25.23
55990;BME280;41875;55.806;38.082;2023-04-15T03:27:10;100709.50;;;3.24;24.45
55990;BME280;41875;55.806;38.082;2023-04-15T03:29:40;100715.69;;;3.23;24.43
55990;BME280;41875;55.806;38.082;2023-04-15T03:32:10;100720.69;;;2.77;24.69
55990;BME280;41875;55.806;38.082;2023-04-15T03:34:42;100727.81;;;2.90;24.97
55990;BME280;41875;55.806;38.082;2023-04-15T03:37:12;100722.97;;;3.50;24.33
55990;BME280;41875;55.806;38.082;2023-04-15T03:39:41;100731.22;;;2.93;24.29
55990;BME280;41875;55.806;38.082;2023-04-15T03:42:13;100728.69;;;2.73;24.79
55990;BME280;41875;55.806;38.082;2023-04-15T03:44:42;100728.47;;;3.12;24.41
55990;BME280;41875;55.806;38.082;2023-04-15T03:47:12;100730.78;;;3.18;24.23
55990;BME280;41875;55.806;38.082;2023-04-15T03:49:42;100734.72;;;3.09;24.04
55990;BME280;41875;55.806;38.082;2023-04-15T03:52:12;100725.75;;;3.31;24.40
55990;BME280;41875;55.806;38.082;2023-04-15T03:54:41;100731.16;;;3.76;23.77
55990;BME280;41875;55.806;38.082;2023-04-15T03:57:12;100733.34;;;3.84;23.64
55990;BME280;41875;55.806;38.082;2023-04-15T03:59:42;100730.81;;;3.98;23.47
55990;BME280;41875;55.806;38.082;2023-04-15T04:02:12;100729.97;;;3.81;23.50
55990;BME280;41875;55.806;38.082;2023-04-15T04:04:42;100743.38;;;4.23;22.98
55990;BME280;41875;55.806;38.082;2023-04-15T04:07:14;100743.84;;;3.02;24.27
55990;BME280;41875;55.806;38.082;2023-04-15T04:09:44;100719.41;;;3.67;23.23
55990;BME280;41875;55.806;38.082;2023-04-15T04:12:16;100749.16;;;4.14;22.96
55990;BME280;41875;55.806;38.082;2023-04-15T04:14:45;100748.69;;;4.68;22.51
55990;BME280;41875;55.806;38.082;2023-04-15T04:17:17;100744.25;;;4.08;23.01
55990;BME280;41875;55.806;38.082;2023-04-15T04:19:47;100752.56;;;3.68;23.34
55990;BME280;41875;55.806;38.082;2023-04-15T04:22:17;100751.69;;;3.51;23.32
55990;BME280;41875;55.806;38.082;2023-04-15T04:24:46;100752.56;;;3.18;24.13
55990;BME280;41875;55.806;38.082;2023-04-15T04:27:17;100752.97;;;3.92;22.55
55990;BME280;41875;55.806;38.082;2023-04-15T04:29:47;100754.38;;;4.30;22.57
55990;BME280;41875;55.806;38.082;2023-04-15T04:32:34;100740.03;;;3.57;23.74
55990;BME280;41875;55.806;38.082;2023-04-15T04:35:07;100755.00;;;4.03;22.80
55990;BME280;41875;55.806;38.082;2023-04-15T04:37:37;100757.97;;;4.43;22.77
55990;BME280;41875;55.806;38.082;2023-04-15T04:40:08;100749.66;;;5.40;21.63
55990;BME280;41875;55.806;38.082;2023-04-15T04:42:39;100746.66;;;5.31;21.79
55990;BME280;41875;55.806;38.082;2023-04-15T04:45:09;100750.22;;;5.16;21.81
55990;BME280;41875;55.806;38.082;2023-04-15T04:47:39;100772.38;;;4.36;22.26
55990;BME280;41875;55.806;38.082;2023-04-15T04:50:09;100768.56;;;4.42;21.90
55990;BME280;41875;55.806;38.082;2023-04-15T04:52:39;100751.41;;;4.36;22.53
55990;BME280;41875;55.806;38.082;2023-04-15T04:55:08;100748.72;;;5.55;20.95
55990;BME280;41875;55.806;38.082;2023-04-15T04:57:39;100752.47;;;5.22;21.61
55990;BME280;41875;55.806;38.082;2023-04-15T05:00:11;100743.50;;;5.68;21.12
55990;BME280;41875;55.806;38.082;2023-04-15T05:02:41;100757.47;;;5.83;20.83
55990;BME280;41875;55.806;38.082;2023-04-15T05:05:11;100768.63;;;6.01;20.37
55990;BME280;41875;55.806;38.082;2023-04-15T05:07:45;100755.22;;;5.06;21.77
55990;BME280;41875;55.806;38.082;2023-04-15T05:10:16;100746.22;;;5.81;20.57
55990;BME280;41875;55.806;38.082;2023-04-15T05:12:48;100750.47;;;6.11;19.91
55990;BME280;41875;55.806;38.082;2023-04-15T05:15:19;100751.34;;;6.52;19.72
55990;BME280;41875;55.806;38.082;2023-04-15T05:17:51;100750.75;;;6.74;19.35
55990;BME280;41875;55.806;38.082;2023-04-15T05:20:22;100745.84;;;6.15;19.81
55990;BME280;41875;55.806;38.082;2023-04-15T05:22:51;100759.38;;;6.23;19.62
55990;BME280;41875;55.806;38.082;2023-04-15T05:25:21;100762.13;;;4.48;21.06
55990;BME280;41875;55.806;38.082;2023-04-15T05:27:52;100767.25;;;4.80;21.17
55990;BME280;41875;55.806;38.082;2023-04-15T05:30:22;100767.88;;;5.14;20.73
55990;BME280;41875;55.806;38.082;2023-04-15T05:32:52;100769.28;;;5.90;20.18
55990;BME280;41875;55.806;38.082;2023-04-15T05:35:22;100776.47;;;5.74;20.28
55990;BME280;41875;55.806;38.082;2023-04-15T05:37:51;100772.38;;;5.26;20.33
55990;BME280;41875;55.806;38.082;2023-04-15T05:40:21;100767.63;;;5.89;20.09
55990;BME280;41875;55.806;38.082;2023-04-15T05:42:52;100771.53;;;6.38;19.45
55990;BME280;41875;55.806;38.082;2023-04-15T05:45:22;100775.84;;;5.41;20.42
55990;BME280;41875;55.806;38.082;2023-04-15T05:47:52;100778.03;;;5.91;19.83
55990;BME280;41875;55.806;38.082;2023-04-15T05:50:22;100767.91;;;6.80;19.42
55990;BME280;41875;55.806;38.082;2023-04-15T05:52:52;100768.06;;;5.40;20.66
55990;BME280;41875;55.806;38.082;2023-04-15T05:55:23;100775.72;;;6.41;19.59
55990;BME280;41875;55.806;38.082;2023-04-15T05:57:54;100781.97;;;5.27;20.70
55990;BME280;41875;55.806;38.082;2023-04-15T06:00:24;100791.31;;;5.31;20.86
55990;BME280;41875;55.806;38.082;2023-04-15T06:02:55;100784.94;;;6.48;19.55
55990;BME280;41875;55.806;38.082;2023-04-15T06:05:25;100777.41;;;6.69;19.68
55990;BME280;41875;55.806;38.082;2023-04-15T06:07:55;100785.66;;;7.80;18.84
55990;BME280;41875;55.806;38.082;2023-04-15T06:10:25;100790.63;;;6.00;20.05
55990;BME280;41875;55.806;38.082;2023-04-15T06:12:56;100806.25;;;6.44;19.72
55990;BME280;41875;55.806;38.082;2023-04-15T06:15:26;100796.03;;;6.39;19.55
55990;BME280;41875;55.806;38.082;2023-04-15T06:17:56;100789.75;;;6.42;19.41
55990;BME280;41875;55.806;38.082;2023-04-15T06:20:26;100800.81;;;6.47;19.47
55990;BME280;41875;55.806;38.082;2023-04-15T06:23:04;100792.16;;;6.85;19.91
55990;BME280;41875;55.806;38.082;2023-04-15T06:25:57;100807.53;;;5.09;20.80
55990;BME280;41875;55.806;38.082;2023-04-15T06:28:29;100802.59;;;6.19;20.13
55990;BME280;41875;55.806;38.082;2023-04-15T06:31:18;100796.78;;;6.68;19.90
55990;BME280;41875;55.806;38.082;2023-04-15T06:33:49;100817.28;;;6.63;18.76
55990;BME280;41875;55.806;38.082;2023-04-15T06:36:24;100806.28;;;6.84;19.05
55990;BME280;41875;55.806;38.082;2023-04-15T06:38:55;100802.06;;;6.41;19.24
55990;BME280;41875;55.806;38.082;2023-04-15T06:41:32;100795.69;;;6.03;19.81
55990;BME280;41875;55.806;38.082;2023-04-15T06:44:04;100796.78;;;6.68;19.64
55990;BME280;41875;55.806;38.082;2023-04-15T06:46:36;100800.94;;;7.37;18.22
55990;BME280;41875;55.806;38.082;2023-04-15T06:49:07;100797.44;;;7.62;17.67
55990;BME280;41875;55.806;38.082;2023-04-15T06:51:41;100803.66;;;7.36;18.02
55990;BME280;41875;55.806;38.082;2023-04-15T06:54:11;100806.84;;;7.15;18.20
55990;BME280;41875;55.806;38.082;2023-04-15T06:56:42;100804.22;;;6.07;19.89
55990;BME280;41875;55.806;38.082;2023-04-15T06:59:13;100796.34;;;7.65;17.96
55990;BME280;41875;55.806;38.082;2023-04-15T07:01:50;100823.72;;;6.72;18.29
55990;BME280;41875;55.806;38.082;2023-04-15T07:04:24;100820.84;;;6.62;18.87
55990;BME280;41875;55.806;38.082;2023-04-15T07:06:55;100806.59;;;5.97;19.81
55990;BME280;41875;55.806;38.082;2023-04-15T07:09:25;100799.44;;;7.20;18.07
55990;BME280;41875;55.806;38.082;2023-04-15T07:11:57;100813.03;;;7.27;18.13
55990;BME280;41875;55.806;38.082;2023-04-15T07:14:28;100795.84;;;8.70;16.57
55990;BME280;41875;55.806;38.082;2023-04-15T07:16:58;100813.66;;;8.06;16.71
55990;BME280;41875;55.806;38.082;2023-04-15T07:19:41;100792.34;;;8.34;16.62
55990;BME280;41875;55.806;38.082;2023-04-15T07:22:15;100809.91;;;8.71;16.30
55990;BME280;41875;55.806;38.082;2023-04-15T07:24:45;100809.03;;;7.34;17.70
55990;BME280;41875;55.806;38.082;2023-04-15T07:27:18;100825.50;;;7.63;17.00
55990;BME280;41875;55.806;38.082;2023-04-15T07:29:52;100813.41;;;8.22;16.95
55990;BME280;41875;55.806;38.082;2023-04-15T07:32:23;100796.00;;;8.80;16.39
55990;BME280;41875;55.806;38.082;2023-04-15T07:34:53;100828.53;;;8.69;16.04
55990;BME280;41875;55.806;38.082;2023-04-15T07:37:44;100819.69;;;8.08;17.07
55990;BME280;41875;55.806;38.082;2023-04-15T07:40:27;100813.88;;;8.03;16.68
55990;BME280;41875;55.806;38.082;2023-04-15T07:42:58;100835.00;;;8.28;16.77
55990;BME280;41875;55.806;38.082;2023-04-15T07:45:29;100812.38;;;8.36;16.87
55990;BME280;41875;55.806;38.082;2023-04-15T07:48:00;100826.50;;;8.11;16.98
55990;BME280;41875;55.806;38.082;2023-04-15T07:50:47;100823.34;;;7.69;16.90
55990;BME280;41875;55.806;38.082;2023-04-15T07:53:26;100792.91;;;7.52;17.57
55990;BME280;41875;55.806;38.082;2023-04-15T07:56:01;100798.75;;;8.43;15.95
55990;BME280;41875;55.806;38.082;2023-04-15T07:58:39;100789.88;;;9.49;15.80
55990;BME280;41875;55.806;38.082;2023-04-15T08:01:57;100794.66;;;7.77;16.90
55990;BME280;41875;55.806;38.082;2023-04-15T08:04:33;100799.03;;;8.87;15.67
55990;BME280;41875;55.806;38.082;2023-04-15T08:07:13;100800.19;;;9.29;15.57
55990;BME280;41875;55.806;38.082;2023-04-15T08:09:50;100796.00;;;9.72;15.12
55990;BME280;41875;55.806;38.082;2023-04-15T08:12:23;100815.06;;;9.08;15.75
55990;BME280;41875;55.806;38.082;2023-04-15T08:14:56;100795.38;;;8.41;16.28
55990;BME280;41875;55.806;38.082;2023-04-15T08:18:15;100796.59;;;9.53;15.46
55990;BME280;41875;55.806;38.082;2023-04-15T08:20:49;100808.41;;;8.91;15.50
55990;BME280;41875;55.806;38.082;2023-04-15T08:23:49;100810.25;;;8.42;16.06
55990;BME280;41875;55.806;38.082;2023-04-15T08:26:31;100803.19;;;9.25;15.33
55990;BME280;41875;55.806;38.082;2023-04-15T08:29:01;100804.66;;;9.40;15.63
55990;BME280;41875;55.806;38.082;2023-04-15T08:31:32;100791.28;;;9.76;14.93
55990;BME280;41875;55.806;38.082;2023-04-15T08:34:17;100775.19;;;8.64;16.08
55990;BME280;41875;55.806;38.082;2023-04-15T08:37:12;100797.44;;;9.54;16.32
55990;BME280;41875;55.806;38.082;2023-04-15T08:39:42;100788.19;;;9.48;16.40
55990;BME280;41875;55.806;38.082;2023-04-15T08:42:22;100802.94;;;9.62;14.81
55990;BME280;41875;55.806;38.082;2023-04-15T08:44:55;100809.44;;;7.67;15.96
55990;BME280;41875;55.806;38.082;2023-04-15T08:47:30;100788.84;;;8.58;15.70
55990;BME280;41875;55.806;38.082;2023-04-15T08:50:07;100776.13;;;9.10;15.20
55990;BME280;41875;55.806;38.082;2023-04-15T08:52:39;100763.13;;;9.86;14.80
55990;BME280;41875;55.806;38.082;2023-04-15T08:55:11;100779.75;;;9.32;14.98
55990;BME280;41875;55.806;38.082;2023-04-15T08:57:46;100781.31;;;9.68;14.41
55990;BME280;41875;55.806;38.082;2023-04-15T09:00:30;100788.91;;;9.50;15.13
55990;BME280;41875;55.806;38.082;2023-04-15T09:03:03;100785.00;;;8.97;16.03
55990;BME280;41875;55.806;38.082;2023-04-15T09:05:39;100784.63;;;8.79;16.39
55990;BME280;41875;55.806;38.082;2023-04-15T09:08:14;100799.25;;;8.48;16.18
55990;BME280;41875;55.806;38.082;2023-04-15T09:10:44;100803.06;;;8.68;15.21
55990;BME280;41875;55.806;38.082;2023-04-15T09:13:23;100771.78;;;8.26;15.85
55990;BME280;41875;55.806;38.082;2023-04-15T09:15:54;100771.91;;;8.96;15.45
55990;BME280;41875;55.806;38.082;2023-04-15T09:18:32;100772.16;;;9.61;15.19
55990;BME280;41875;55.806;38.082;2023-04-15T09:21:15;100761.50;;;9.51;15.56
55990;BME280;41875;55.806;38.082;2023-04-15T09:24:10;100777.94;;;8.98;16.42
55990;BME280;41875;55.806;38.082;2023-04-15T09:27:47;100782.88;;;9.03;15.98
55990;BME280;41875;55.806;38.082;2023-04-15T09:30:23;100755.59;;;9.36;14.72
55990;BME280;41875;55.806;38.082;2023-04-15T09:32:55;100787.53;;;9.79;14.54
55990;BME280;41875;55.806;38.082;2023-04-15T09:36:01;100771.25;;;8.45;15.70
55990;BME280;41875;55.806;38.082;2023-04-15T09:38:53;100771.31;;;8.92;14.94
55990;BME280;41875;55.806;38.082;2023-04-15T09:41:26;100762.22;;;9.65;14.62
55990;BME280;41875;55.806;38.082;2023-04-15T09:43:56;100761.91;;;9.90;14.79
55990;BME280;41875;55.806;38.082;2023-04-15T09:46:42;100755.03;;;10.43;13.90
55990;BME280;41875;55.806;38.082;2023-04-15T09:49:13;100756.63;;;9.90;14.35
55990;BME280;41875;55.806;38.082;2023-04-15T09:51:43;100760.41;;;9.42;15.25
55990;BME280;41875;55.806;38.082;2023-04-15T09:54:35;100771.28;;;10.39;14.36
55990;BME280;41875;55.806;38.082;2023-04-15T09:57:20;100758.72;;;9.53;15.40
55990;BME280;41875;55.806;38.082;2023-04-15T09:59:51;100757.03;;;9.74;15.33
55990;BME280;41875;55.806;38.082;2023-04-15T10:02:22;100759.38;;;10.33;15.19
55990;BME280;41875;55.806;38.082;2023-04-15T10:04:53;100749.41;;;9.93;14.96
55990;BME280;41875;55.806;38.082;2023-04-15T10:07:24;100745.16;;;10.34;13.84
55990;BME280;41875;55.806;38.082;2023-04-15T10:10:06;100750.25;;;10.58;14.35
55990;BME280;41875;55.806;38.082;2023-04-15T10:12:39;100751.69;;;10.62;14.01
55990;BME280;41875;55.806;38.082;2023-04-15T10:15:14;100750.66;;;10.75;14.06
55990;BME280;41875;55.806;38.082;2023-04-15T10:17:47;100763.59;;;10.35;14.18
55990;BME280;41875;55.806;38.082;2023-04-15T10:20:19;100771.94;;;9.64;15.20
55990;BME280;41875;55.806;38.082;2023-04-15T10:22:52;100765.69;;;8.97;15.50
55990;BME280;41875;55.806;38.082;2023-04-15T10:25:24;100750.22;;;10.37;14.68
55990;BME280;41875;55.806;38.082;2023-04-15T10:27:56;100740.00;;;11.17;14.34
55990;BME280;41875;55.806;38.082;2023-04-15T10:30:26;100756.16;;;11.14;14.28
55990;BME280;41875;55.806;38.082;2023-04-15T10:32:56;100746.03;;;9.90;15.42
55990;BME280;41875;55.806;38.082;2023-04-15T10:35:26;100747.13;;;10.74;14.43
55990;BME280;41875;55.806;38.082;2023-04-15T10:37:57;100738.75;;;11.52;13.93
55990;BME280;41875;55.806;38.082;2023-04-15T10:40:30;100720.25;;;11.31;13.68
55990;BME280;41875;55.806;38.082;2023-04-15T10:43:01;100727.81;;;11.46;13.48
55990;BME280;41875;55.806;38.082;2023-04-15T10:45:32;100752.47;;;11.77;13.34
55990;BME280;41875;55.806;38.082;2023-04-15T10:48:07;100736.50;;;9.99;14.43
55990;BME280;41875;55.806;38.082;2023-04-15T10:51:00;100695.19;;;10.41;13.94
55990;BME280;41875;55.806;38.082;2023-04-15T10:54:02;100732.53;;;11.93;13.40
55990;BME280;41875;55.806;38.082;2023-04-15T10:57:15;100746.66;;;11.93;13.46
55990;BME280;41875;55.806;38.082;2023-04-15T11:00:09;100762.16;;;11.88;13.76
55990;BME280;41875;55.806;38.082;2023-04-15T11:02:41;100745.72;;;10.91;14.30
55990;BME280;41875;55.806;38.082;2023-04-15T11:05:15;100744.81;;;11.02;13.77
55990;BME280;41875;55.806;38.082;2023-04-15T11:07:58;100686.72;;;12.00;13.20
55990;BME280;41875;55.806;38.082;2023-04-15T11:10:52;100731.56;;;12.72;13.51
55990;BME280;41875;55.806;38.082;2023-04-15T11:13:30;100731.53;;;11.84;13.70
55990;BME280;41875;55.806;38.082;2023-04-15T11:16:02;100744.22;;;12.31;13.45
55990;BME280;41875;55.806;38.082;2023-04-15T11:18:33;100733.41;;;12.52;13.40
55990;BME280;41875;55.806;38.082;2023-04-15T11:21:04;100726.00;;;12.36;13.51
55990;BME280;41875;55.806;38.082;2023-04-15T11:23:38;100725.50;;;11.21;14.26
55990;BME280;41875;55.806;38.082;2023-04-15T11:26:12;100729.09;;;12.31;13.89
55990;BME280;41875;55.806;38.082;2023-04-15T11:28:46;100730.19;;;12.09;13.75
55990;BME280;41875;55.806;38.082;2023-04-15T11:31:17;100730.06;;;12.40;13.85
55990;BME280;41875;55.806;38.082;2023-04-15T11:33:53;100718.88;;;12.07;14.32
55990;BME280;41875;55.806;38.082;2023-04-15T11:36:24;100739.72;;;12.31;13.72
55990;BME280;41875;55.806;38.082;2023-04-15T11:38:57;100737.84;;;10.80;14.70
55990;BME280;41875;55.806;38.082;2023-04-15T11:41:27;100726.28;;;12.33;13.80
55990;BME280;41875;55.806;38.082;2023-04-15T11:44:01;100728.50;;;12.67;13.36
55990;BME280;41875;55.806;38.082;2023-04-15T11:46:33;100715.69;;;12.13;13.98
55990;BME280;41875;55.806;38.082;2023-04-15T11:49:02;100732.44;;;12.24;13.82
55990;BME280;41875;55.806;38.082;2023-04-15T11:51:33;100712.34;;;11.20;14.27
55990;BME280;41875;55.806;38.082;2023-04-15T11:54:06;100736.22;;;12.31;13.50
55990;BME280;41875;55.806;38.082;2023-04-15T11:56:35;100730.50;;;12.35;13.35
55990;BME280;41875;55.806;38.082;2023-04-15T11:59:05;100723.50;;;11.13;13.91
55990;BME280;41875;55.806;38.082;2023-04-15T12:01:35;100714.81;;;12.52;13.04
55990;BME280;41875;55.806;38.082;2023-04-15T12:04:10;100708.75;;;11.71;13.97
55990;BME280;41875;55.806;38.082;2023-04-15T12:06:39;100697.31;;;11.90;13.91
55990;BME280;41875;55.806;38.082;2023-04-15T12:09:09;100703.22;;;12.53;13.55
55990;BME280;41875;55.806;38.082;2023-04-15T12:11:40;100684.63;;;12.91;13.39
55990;BME280;41875;55.806;38.082;2023-04-15T12:14:19;100686.56;;;12.41;14.00
55990;BME280;41875;55.806;38.082;2023-04-15T12:16:49;100692.03;;;12.97;13.52
55990;BME280;41875;55.806;38.082;2023-04-15T12:19:24;100683.25;;;12.87;13.65
55990;BME280;41875;55.806;38.082;2023-04-15T12:21:58;100682.66;;;13.31;13.20
55990;BME280;41875;55.806;38.082;2023-04-15T12:24:30;100698.75;;;12.91;13.58
55990;BME280;41875;55.806;38.082;2023-04-15T12:27:06;100706.56;;;11.36;13.97
55990;BME280;41875;55.806;38.082;2023-04-15T12:29:39;100702.88;;;11.68;13.80
55990;BME280;41875;55.806;38.082;2023-04-15T12:32:10;100689.91;;;12.53;13.49
55990;BME280;41875;55.806;38.082;2023-04-15T12:35:06;100697.47;;;12.38;13.63
55990;BME280;41875;55.806;38.082;2023-04-15T12:37:41;100709.00;;;11.68;13.96
55990;BME280;41875;55.806;38.082;2023-04-15T12:40:10;100685.47;;;12.04;14.00
55990;BME280;41875;55.806;38.082;2023-04-15T12:42:46;100717.59;;;12.60;13.67
55990;BME280;41875;55.806;38.082;2023-04-15T12:45:16;100683.63;;;12.54;14.02
55990;BME280;41875;55.806;38.082;2023-04-15T12:47:45;100689.47;;;13.05;13.65
55990;BME280;41875;55.806;38.082;2023-04-15T12:50:14;100700.53;;;12.53;13.55
55990;BME280;41875;55.806;38.082;2023-04-15T12:52:44;100685.75;;;12.21;14.23
55990;BME280;41875;55.806;38.082;2023-04-15T12:55:17;100640.50;;;12.60;13.78
55990;BME280;41875;55.806;38.082;2023-04-15T12:57:46;100670.16;;;13.41;13.82
55990;BME280;41875;55.806;38.082;2023-04-15T13:00:19;100669.00;;;13.44;13.40
55990;BME280;41875;55.806;38.082;2023-04-15T13:02:48;100659.50;;;13.13;13.44
55990;BME280;41875;55.806;38.082;2023-04-15T13:05:17;100669.75;;;13.26;13.86
55990;BME280;41875;55.806;38.082;2023-04-15T13:07:45;100679.28;;;13.01;13.40
55990;BME280;41875;55.806;38.082;2023-04-15T13:10:17;100689.78;;;12.45;13.85
55990;BME280;41875;55.806;38.082;2023-04-15T13:12:48;100675.53;;;12.93;13.63
55990;BME280;41875;55.806;38.082;2023-04-15T13:15:22;100668.00;;;13.17;13.81
55990;BME280;41875;55.806;38.082;2023-04-15T13:17:52;100663.41;;;13.09;13.95
55990;BME280;41875;55.806;38.082;2023-04-15T13:20:20;100654.53;;;13.18;14.02